createdAt,value
2018-09-18T00:01:46.253Z,15.00
2018-09-18T00:04:14.851Z,14.60
2018-09-18T00:06:43.444Z,15.00
2018-09-18T00:09:12.430Z,14.73
2018-09-18T00:11:41.017Z,15.10
2018-09-18T00:14:09.618Z,14.80
2018-09-18T00:16:38.194Z,14.70
2018-09-18T00:19:06.937Z,14.77
2018-09-18T00:21:35.612Z,15.33
2018-09-18T00:24:04.233Z,17.83
2018-09-18T00:26:32.801Z,18.07
2018-09-18T00:29:01.456Z,16.63
2018-09-18T00:31:30.055Z,15.90
2018-09-18T00:33:58.653Z,15.53
2018-09-18T00:36:27.232Z,15.13
2018-09-18T00:38:55.816Z,15.43
2018-09-18T00:41:24.393Z,15.07
2018-09-18T00:43:52.980Z,15.43
2018-09-18T00:46:21.554Z,15.00
2018-09-18T00:48:50.133Z,14.80
2018-09-18T00:51:18.900Z,15.80
2018-09-18T00:53:47.506Z,14.93
2018-09-18T00:56:16.075Z,14.13
2018-09-18T00:58:44.684Z,15.83
2018-09-18T01:01:13.268Z,15.23
2018-09-18T01:03:41.860Z,15.00
2018-09-18T01:06:10.448Z,15.83
2018-09-18T01:08:39.039Z,15.37
2018-09-18T01:11:07.684Z,15.07
2018-09-18T01:13:36.284Z,15.53
2018-09-18T01:16:04.873Z,14.40
2018-09-18T01:18:39.514Z,15.23
2018-09-18T01:21:08.121Z,14.53
2018-09-18T01:23:36.737Z,15.90
2018-09-18T01:26:05.340Z,15.40
2018-09-18T01:28:34.558Z,14.83
2018-09-18T01:31:03.514Z,14.70
2018-09-18T01:33:32.103Z,14.27
2018-09-18T01:36:00.725Z,14.87
2018-09-18T01:38:29.289Z,14.60
2018-09-18T01:40:57.891Z,15.80
2018-09-18T01:43:26.460Z,15.47
2018-09-18T01:45:55.059Z,14.60
2018-09-18T01:48:23.601Z,14.03
2018-09-18T01:50:52.185Z,14.60
2018-09-18T01:53:20.740Z,13.87
2018-09-18T01:55:49.306Z,15.33
2018-09-18T01:58:17.884Z,13.43
2018-09-18T02:00:46.489Z,14.13
2018-09-18T02:03:15.061Z,15.90
2018-09-18T02:05:43.660Z,16.97
2018-09-18T02:08:12.221Z,17.17
2018-09-18T02:10:40.836Z,17.83
2018-09-18T02:13:09.385Z,17.37
2018-09-18T02:15:37.994Z,15.40
2018-09-18T02:18:06.613Z,15.67
2018-09-18T02:20:35.195Z,15.17
2018-09-18T02:23:03.857Z,15.53
2018-09-18T02:25:32.438Z,14.63
2018-09-18T02:28:00.976Z,14.30
2018-09-18T02:30:29.556Z,15.33
2018-09-18T02:32:58.110Z,15.60
2018-09-18T02:35:26.699Z,15.73
2018-09-18T02:37:55.249Z,16.23
2018-09-18T02:40:23.859Z,16.00
2018-09-18T02:42:52.481Z,15.97
2018-09-18T02:45:21.067Z,15.37
2018-09-18T02:47:49.628Z,16.27
2018-09-18T02:50:18.192Z,16.30
2018-09-18T02:52:46.758Z,16.90
2018-09-18T02:55:15.356Z,16.87
2018-09-18T02:57:43.937Z,16.80
2018-09-18T03:00:12.563Z,15.87
2018-09-18T03:02:41.121Z,16.77
2018-09-18T03:05:09.721Z,16.90
2018-09-18T03:07:38.360Z,16.80
2018-09-18T03:10:07.296Z,15.93
2018-09-18T03:12:35.892Z,16.07
2018-09-18T03:15:04.552Z,15.90
2018-09-18T03:17:33.108Z,15.63
2018-09-18T03:20:01.673Z,15.90
2018-09-18T03:22:30.300Z,16.20
2018-09-18T03:24:58.848Z,16.43
2018-09-18T03:27:27.781Z,15.43
2018-09-18T03:29:56.297Z,15.13
2018-09-18T03:32:25.035Z,16.37
2018-09-18T03:34:53.620Z,15.83
2018-09-18T03:37:22.234Z,16.30
2018-09-18T03:39:50.797Z,15.90
2018-09-18T03:42:19.400Z,16.30
2018-09-18T03:44:47.972Z,16.83
2018-09-18T03:47:18.985Z,16.43
2018-09-18T03:49:47.533Z,15.73
2018-09-18T03:52:16.208Z,16.23
2018-09-18T03:54:44.809Z,16.00
2018-09-18T03:57:13.417Z,15.90
2018-09-18T03:59:42.040Z,16.03
2018-09-18T04:02:10.636Z,16.70
2018-09-18T04:04:39.230Z,15.83
2018-09-18T04:07:07.804Z,15.57
2018-09-18T04:09:36.354Z,14.90
2018-09-18T04:12:04.980Z,15.93
2018-09-18T04:14:33.516Z,15.63
2018-09-18T04:17:02.130Z,15.43
2018-09-18T04:19:30.676Z,15.17
2018-09-18T04:21:59.264Z,15.97
2018-09-18T04:24:27.808Z,15.93
2018-09-18T04:26:56.405Z,15.47
2018-09-18T04:29:25.010Z,15.77
2018-09-18T04:31:53.604Z,15.27
2018-09-18T04:34:22.191Z,15.23
2018-09-18T04:36:50.800Z,14.90
2018-09-18T04:39:19.340Z,13.53
2018-09-18T04:41:47.956Z,14.10
2018-09-18T04:44:16.525Z,14.60
2018-09-18T04:46:45.143Z,14.60
2018-09-18T04:49:13.776Z,14.47
2018-09-18T04:51:42.391Z,15.40
2018-09-18T04:54:10.938Z,13.70
2018-09-18T04:56:39.534Z,13.13
2018-09-18T04:59:08.115Z,15.07
2018-09-18T05:01:37.054Z,15.63
2018-09-18T05:04:05.621Z,17.63
2018-09-18T05:06:34.214Z,18.63
2018-09-18T05:09:02.831Z,17.50
2018-09-18T05:11:31.487Z,16.67
2018-09-18T05:14:00.129Z,15.67
2018-09-18T05:16:28.642Z,17.33
2018-09-18T05:18:57.235Z,17.57
2018-09-18T05:21:25.770Z,17.60
2018-09-18T05:23:54.386Z,17.57
2018-09-18T05:26:22.950Z,16.57
2018-09-18T05:28:51.545Z,17.27
2018-09-18T05:31:20.098Z,14.23
2018-09-18T05:33:48.721Z,16.47
2018-09-18T05:36:17.276Z,16.50
2018-09-18T05:38:45.905Z,15.63
2018-09-18T05:41:14.482Z,16.23
2018-09-18T05:43:43.074Z,16.47
2018-09-18T05:46:11.656Z,16.17
2018-09-18T05:48:40.272Z,14.57
2018-09-18T05:51:08.923Z,17.57
2018-09-18T05:53:37.585Z,14.73
2018-09-18T05:56:06.207Z,15.13
2018-09-18T05:58:34.851Z,14.33
2018-09-18T06:01:03.449Z,15.00
2018-09-18T06:03:32.091Z,14.83
2018-09-18T06:06:00.677Z,13.57
2018-09-18T06:08:29.364Z,12.73
2018-09-18T06:10:57.977Z,14.07
2018-09-18T06:13:26.644Z,13.87
2018-09-18T06:15:55.246Z,14.37
2018-09-18T06:18:23.909Z,13.47
2018-09-18T06:20:52.495Z,13.70
2018-09-18T06:23:21.135Z,13.10
2018-09-18T06:25:49.743Z,13.97
2018-09-18T06:28:21.929Z,12.70
2018-09-18T06:30:50.895Z,12.83
2018-09-18T06:33:19.641Z,12.47
2018-09-18T06:35:48.401Z,12.30
2018-09-18T06:38:17.058Z,11.87
2018-09-18T06:40:45.712Z,9.80
2018-09-18T06:43:14.365Z,11.17
2018-09-18T06:45:43.044Z,10.50
2018-09-18T06:48:11.689Z,10.37
2018-09-18T06:50:40.272Z,10.78
2018-09-18T06:53:08.970Z,10.23
2018-09-18T06:55:39.681Z,9.90
2018-09-18T06:58:08.274Z,9.95
2018-09-18T07:00:36.873Z,10.55
2018-09-18T07:03:05.543Z,11.15
2018-09-18T07:07:03.243Z,11.88
2018-09-18T07:09:31.877Z,12.68
2018-09-18T07:12:00.477Z,12.30
2018-09-18T07:14:29.086Z,12.33
2018-09-18T07:16:57.714Z,13.15
2018-09-18T07:19:26.416Z,13.28
2018-09-18T07:21:55.011Z,13.22
2018-09-18T07:24:23.684Z,12.70
2018-09-18T07:26:52.303Z,13.53
2018-09-18T07:29:21.021Z,13.38
2018-09-18T07:31:49.580Z,14.73
2018-09-18T07:34:18.215Z,13.72
2018-09-18T07:36:46.840Z,13.28
2018-09-18T07:39:15.501Z,12.70
2018-09-18T07:41:44.156Z,13.48
2018-09-18T07:44:12.811Z,12.35
2018-09-18T07:46:43.765Z,13.15
2018-09-18T07:49:12.426Z,13.00
2018-09-18T07:51:41.068Z,13.48
2018-09-18T07:54:09.828Z,12.85
2018-09-18T07:56:38.437Z,11.73
2018-09-18T07:59:07.149Z,11.85
2018-09-18T08:01:35.779Z,11.97
2018-09-18T08:04:04.414Z,12.05
2018-09-18T08:06:33.061Z,12.75
2018-09-18T08:09:01.707Z,12.73
2018-09-18T08:11:30.312Z,14.10
2018-09-18T08:13:58.950Z,12.98
2018-09-18T08:16:27.556Z,14.00
2018-09-18T08:18:56.216Z,12.85
2018-09-18T08:21:24.778Z,13.35
2018-09-18T08:23:53.441Z,14.05
2018-09-18T08:26:22.006Z,13.50
2018-09-18T08:28:50.670Z,13.78
2018-09-18T08:31:19.329Z,13.95
2018-09-18T08:33:47.957Z,12.98
2018-09-18T08:36:16.561Z,12.50
2018-09-18T08:38:45.208Z,12.80
2018-09-18T08:41:13.885Z,12.37
2018-09-18T08:43:42.452Z,14.53
2018-09-18T08:46:11.097Z,12.90
2018-09-18T08:48:43.773Z,13.05
2018-09-18T08:51:12.353Z,13.35
2018-09-18T08:53:40.966Z,13.88
2018-09-18T08:56:09.601Z,14.63
2018-09-18T08:58:38.175Z,14.00
2018-09-18T09:01:06.943Z,13.93
2018-09-18T09:03:35.541Z,15.53
2018-09-18T09:06:04.172Z,15.70
2018-09-18T09:08:33.126Z,16.55
2018-09-18T09:11:01.733Z,16.55
2018-09-18T09:13:30.414Z,16.65
2018-09-18T09:15:59.097Z,16.40
2018-09-18T09:18:27.817Z,15.50
2018-09-18T09:20:56.485Z,14.33
2018-09-18T09:23:25.006Z,14.07
2018-09-18T09:25:54.148Z,14.75
2018-09-18T09:28:22.731Z,14.65
2018-09-18T09:30:51.324Z,16.37
2018-09-18T09:33:19.890Z,15.65
2018-09-18T09:35:48.484Z,15.30
2018-09-18T09:38:17.085Z,15.65
2018-09-18T09:40:45.921Z,15.03
2018-09-18T09:43:14.499Z,15.18
2018-09-18T09:45:43.065Z,13.98
2018-09-18T09:48:11.612Z,15.03
2018-09-18T09:50:40.188Z,15.23
2018-09-18T09:53:08.812Z,14.07
2018-09-18T09:55:37.423Z,13.10
2018-09-18T09:58:06.052Z,12.50
2018-09-18T10:00:39.956Z,11.97
2018-09-18T10:03:08.569Z,13.85
2018-09-18T10:05:37.164Z,14.15
2018-09-18T10:08:05.764Z,12.82
2018-09-18T10:10:34.400Z,11.40
2018-09-18T10:13:02.951Z,12.60
2018-09-18T10:15:31.597Z,10.18
2018-09-18T10:18:00.280Z,12.63
2018-09-18T10:20:28.811Z,11.25
2018-09-18T10:22:57.381Z,11.78
2018-09-18T10:25:26.039Z,11.55
2018-09-18T10:27:54.543Z,12.73
2018-09-18T10:30:23.165Z,10.48
2018-09-18T10:32:51.778Z,10.15
2018-09-18T10:35:20.449Z,10.38
2018-09-18T10:37:49.056Z,11.53
2018-09-18T10:40:17.641Z,10.58
2018-09-18T10:42:46.319Z,11.55
2018-09-18T10:45:14.894Z,11.33
2018-09-18T10:47:43.482Z,8.95
2018-09-18T10:50:12.029Z,9.98
2018-09-18T10:52:40.660Z,9.98
2018-09-18T10:55:09.293Z,10.98
2018-09-18T10:57:37.909Z,9.73
2018-09-18T11:00:07.836Z,9.75
2018-09-18T11:02:36.509Z,9.65
2018-09-18T11:05:05.143Z,9.50
2018-09-18T11:07:33.798Z,9.33
2018-09-18T11:10:02.333Z,8.48
2018-09-18T11:12:31.042Z,8.93
2018-09-18T11:14:59.755Z,8.38
2018-09-18T11:17:28.304Z,9.00
2018-09-18T11:19:56.961Z,9.25
2018-09-18T11:22:25.550Z,9.85
2018-09-18T11:24:54.077Z,9.48
2018-09-18T11:27:22.715Z,10.82
2018-09-18T11:29:51.280Z,11.28
2018-09-18T11:32:19.874Z,11.75
2018-09-18T11:34:48.442Z,10.35
2018-09-18T11:37:17.079Z,8.88
2018-09-18T11:39:45.648Z,9.13
2018-09-18T11:42:14.212Z,10.75
2018-09-18T11:44:42.811Z,10.58
2018-09-18T11:47:12.424Z,10.55
2018-09-18T11:49:41.009Z,8.48
2018-09-18T11:52:12.469Z,8.85
2018-09-18T11:54:41.117Z,10.45
2018-09-18T11:57:09.805Z,9.68
2018-09-18T11:59:38.410Z,9.65
2018-09-18T12:02:07.061Z,8.73
2018-09-18T12:04:35.748Z,10.18
2018-09-18T12:07:04.342Z,8.55
2018-09-18T12:09:32.910Z,8.98
2018-09-18T12:12:01.523Z,10.28
2018-09-18T12:14:30.189Z,9.00
2018-09-18T12:16:58.835Z,8.23
2018-09-18T12:19:27.429Z,8.13
2018-09-18T12:21:56.056Z,8.43
2018-09-18T12:24:24.696Z,8.75
2018-09-18T12:26:53.329Z,9.53
2018-09-18T12:29:22.547Z,8.68
2018-09-18T12:31:51.183Z,10.38
2018-09-18T12:35:44.185Z,10.95
2018-09-18T12:38:12.810Z,10.58
2018-09-18T12:40:41.391Z,8.68
2018-09-18T12:43:10.055Z,8.60
2018-09-18T12:45:38.643Z,9.38
2018-09-18T12:48:07.301Z,9.88
2018-09-18T12:50:36.200Z,9.00
2018-09-18T12:53:04.794Z,10.90
2018-09-18T12:55:33.353Z,9.70
2018-09-18T12:58:02.057Z,9.28
2018-09-18T13:00:30.637Z,8.80
2018-09-18T13:02:59.229Z,8.50
2018-09-18T13:05:27.828Z,7.25
2018-09-18T13:07:56.466Z,7.08
2018-09-18T13:10:25.039Z,7.40
2018-09-18T13:12:53.766Z,7.05
2018-09-18T13:15:22.312Z,7.20
2018-09-18T13:17:51.138Z,8.10
2018-09-18T13:20:19.717Z,7.25
2018-09-18T13:22:48.367Z,6.33
2018-09-18T13:25:16.906Z,6.95
2018-09-18T13:27:45.488Z,7.15
2018-09-18T13:30:14.092Z,7.08
2018-09-18T13:32:42.782Z,7.25
2018-09-18T13:35:11.290Z,7.42
2018-09-18T13:37:39.869Z,7.55
2018-09-18T13:40:08.436Z,7.37
2018-09-18T13:42:37.032Z,8.23
2018-09-18T13:45:05.670Z,7.47
2018-09-18T13:47:34.204Z,7.50
2018-09-18T13:50:04.295Z,7.87
2018-09-18T13:52:32.916Z,8.18
2018-09-18T13:55:01.526Z,6.97
2018-09-18T13:57:30.106Z,7.55
2018-09-18T13:59:58.719Z,6.50
2018-09-18T14:02:27.443Z,7.33
2018-09-18T14:04:56.098Z,7.03
2018-09-18T14:07:24.695Z,7.58
2018-09-18T14:09:53.363Z,7.17
2018-09-18T14:12:21.920Z,7.53
2018-09-18T14:14:50.631Z,7.92
2018-09-18T14:17:19.187Z,8.38
2018-09-18T14:19:47.897Z,8.35
2018-09-18T14:22:16.445Z,8.10
2018-09-18T14:24:45.046Z,7.87
2018-09-18T14:27:13.663Z,8.08
2018-09-18T14:29:42.271Z,7.58
2018-09-18T14:32:11.017Z,7.70
2018-09-18T14:34:39.708Z,7.85
2018-09-18T14:37:08.359Z,7.25
2018-09-18T14:39:37.631Z,7.67
2018-09-18T14:42:06.204Z,7.10
2018-09-18T14:44:34.804Z,7.58
2018-09-18T14:47:03.378Z,8.03
2018-09-18T14:49:32.104Z,7.42
2018-09-18T14:52:00.701Z,8.00
2018-09-18T14:54:29.328Z,7.87
2018-09-18T14:56:57.915Z,7.60
2018-09-18T14:59:26.601Z,7.60
2018-09-18T15:01:55.243Z,7.62
2018-09-18T15:04:24.437Z,8.03
2018-09-18T15:06:53.104Z,8.10
2018-09-18T15:09:21.698Z,7.70
2018-09-18T15:11:50.313Z,7.87
2018-09-18T15:14:19.036Z,7.53
2018-09-18T15:16:47.612Z,7.45
2018-09-18T15:19:16.308Z,7.55
2018-09-18T15:21:44.923Z,7.92
2018-09-18T15:24:13.555Z,7.40
2018-09-18T15:26:42.140Z,7.45
2018-09-18T15:29:11.345Z,7.45
2018-09-18T15:31:39.964Z,7.83
2018-09-18T15:34:08.713Z,8.80
2018-09-18T15:36:37.310Z,8.60
2018-09-18T15:39:07.809Z,8.48
2018-09-18T15:41:36.445Z,8.25
2018-09-18T15:44:05.096Z,8.13
2018-09-18T15:46:34.741Z,9.58
2018-09-18T15:49:03.491Z,8.28
2018-09-18T15:51:32.219Z,8.55
2018-09-18T15:54:01.131Z,8.63
2018-09-18T15:56:33.392Z,7.50
2018-09-18T15:59:02.077Z,7.50
2018-09-18T16:01:30.959Z,8.00
2018-09-18T16:04:02.309Z,7.28
2018-09-18T16:06:36.475Z,7.03
2018-09-18T16:09:07.196Z,7.42
2018-09-18T16:11:39.210Z,7.95
2018-09-18T16:14:08.117Z,7.58
2018-09-18T16:16:37.077Z,6.95
2018-09-18T16:19:05.931Z,7.08
2018-09-18T16:21:34.559Z,6.60
2018-09-18T16:24:03.205Z,6.80
2018-09-18T16:26:31.762Z,7.10
2018-09-18T16:29:00.437Z,6.58
2018-09-18T16:31:29.035Z,7.53
2018-09-18T16:33:57.634Z,6.70
2018-09-18T16:36:26.273Z,7.35
2018-09-18T16:38:54.992Z,7.50
2018-09-18T16:41:23.857Z,7.10
2018-09-18T16:43:52.513Z,7.28
2018-09-18T16:46:21.160Z,7.08
2018-09-18T16:48:49.793Z,7.97
2018-09-18T16:51:19.602Z,8.03
2018-09-18T16:53:50.489Z,7.67
2018-09-18T16:56:28.285Z,7.25
2018-09-18T16:58:56.892Z,7.95
2018-09-18T17:01:25.538Z,8.43
2018-09-18T17:03:54.649Z,7.60
2018-09-18T17:06:23.290Z,8.43
2018-09-18T17:08:51.888Z,8.10
2018-09-18T17:11:20.476Z,7.87
2018-09-18T17:13:49.023Z,8.55
2018-09-18T17:16:17.599Z,8.60
2018-09-18T17:18:46.207Z,8.50
2018-09-18T17:21:14.823Z,9.10
2018-09-18T17:23:43.447Z,8.68
2018-09-18T17:26:12.020Z,8.58
2018-09-18T17:28:40.814Z,8.58
2018-09-18T17:31:09.433Z,8.43
2018-09-18T17:33:38.494Z,8.45
2018-09-18T17:36:07.350Z,9.43
2018-09-18T17:38:35.931Z,8.50
2018-09-18T17:41:04.575Z,8.70
2018-09-18T17:43:33.117Z,9.30
2018-09-18T17:46:01.706Z,8.80
2018-09-18T17:48:30.298Z,9.13
2018-09-18T17:50:58.896Z,9.30
2018-09-18T17:53:27.502Z,9.37
2018-09-18T17:55:56.205Z,9.23
2018-09-18T17:58:24.785Z,9.93
2018-09-18T18:00:53.418Z,9.23
2018-09-18T18:03:22.066Z,10.23
2018-09-18T18:05:50.676Z,10.03
2018-09-18T18:08:19.271Z,9.80
2018-09-18T18:10:47.917Z,9.07
2018-09-18T18:13:16.448Z,9.00
2018-09-18T18:15:45.047Z,10.07
2018-09-18T18:18:13.602Z,9.97
2018-09-18T18:20:42.346Z,9.63
2018-09-18T18:23:10.830Z,9.70
2018-09-18T18:25:40.330Z,10.00
2018-09-18T18:28:08.929Z,10.50
2018-09-18T18:30:37.508Z,11.07
2018-09-18T18:33:06.237Z,11.83
2018-09-18T18:35:34.897Z,10.50
2018-09-18T18:38:03.550Z,11.67
2018-09-18T18:40:32.145Z,11.40
2018-09-18T18:43:00.762Z,10.70
2018-09-18T18:45:30.233Z,11.00
2018-09-18T18:47:59.045Z,10.47
2018-09-18T18:50:27.440Z,10.90
2018-09-18T18:52:56.055Z,12.53
2018-09-18T18:55:24.636Z,10.30
2018-09-18T18:57:53.318Z,11.17
2018-09-18T19:00:21.950Z,11.67
2018-09-18T19:02:50.826Z,12.50
2018-09-18T19:05:19.485Z,11.43
2018-09-18T19:07:48.141Z,11.73
2018-09-18T19:10:16.799Z,11.37
2018-09-18T19:12:46.567Z,11.60
2018-09-18T19:15:15.389Z,10.83
2018-09-18T19:17:44.035Z,12.07
2018-09-18T19:20:12.636Z,12.63
2018-09-18T19:22:41.253Z,12.20
2018-09-18T19:25:09.882Z,13.80
2018-09-18T19:27:38.623Z,13.27
2018-09-18T19:30:07.319Z,14.07
2018-09-18T19:32:36.048Z,14.73
2018-09-18T19:35:04.704Z,14.53
2018-09-18T19:37:33.477Z,15.77
2018-09-18T19:40:02.138Z,15.17
2018-09-18T19:42:30.795Z,15.00
2018-09-18T19:44:59.405Z,15.73
2018-09-18T19:47:28.016Z,15.53
2018-09-18T19:49:56.612Z,15.47
2018-09-18T19:52:25.275Z,16.17
2018-09-18T19:54:53.836Z,15.83
2018-09-18T19:57:22.456Z,16.90
2018-09-18T19:59:51.029Z,16.27
2018-09-18T20:02:19.691Z,16.70
2018-09-18T20:04:48.271Z,15.33
2018-09-18T20:07:16.912Z,15.23
2018-09-18T20:09:45.488Z,15.63
2018-09-18T20:12:14.114Z,15.97
2018-09-18T20:14:42.768Z,16.43
2018-09-18T20:17:11.347Z,17.50
2018-09-18T20:19:39.999Z,16.10
2018-09-18T20:22:09.679Z,17.13
2018-09-18T20:24:38.355Z,17.37
2018-09-18T20:27:07.397Z,19.73
2018-09-18T20:29:36.073Z,23.73
2018-09-18T20:32:04.639Z,21.73
2018-09-18T20:34:33.255Z,20.17
2018-09-18T20:37:01.823Z,19.70
2018-09-18T20:39:30.426Z,20.67
2018-09-18T20:41:59.013Z,21.93
2018-09-18T20:44:27.788Z,20.03
2018-09-18T20:46:56.645Z,20.20
2018-09-18T20:49:25.342Z,19.10
2018-09-18T20:51:53.877Z,19.37
2018-09-18T20:54:22.483Z,19.03
2018-09-18T20:56:51.062Z,18.90
2018-09-18T20:59:19.680Z,18.80
2018-09-18T21:01:48.255Z,16.67
2018-09-18T21:04:16.873Z,15.57
2018-09-18T21:06:45.433Z,14.70
2018-09-18T21:09:14.064Z,15.27
2018-09-18T21:11:42.649Z,15.47
2018-09-18T21:14:11.361Z,14.93
2018-09-18T21:16:39.918Z,16.03
2018-09-18T21:19:08.554Z,15.87
2018-09-18T21:21:37.093Z,15.97
2018-09-18T21:24:05.737Z,17.43
2018-09-18T21:26:34.296Z,18.43
2018-09-18T21:29:02.913Z,17.63
2018-09-18T21:31:31.472Z,18.07
2018-09-18T21:34:00.068Z,17.73
2018-09-18T21:36:28.613Z,18.13
2018-09-18T21:38:57.239Z,17.60
2018-09-18T21:41:25.819Z,19.53
2018-09-18T21:43:54.469Z,19.30
2018-09-18T21:46:23.117Z,17.93
2018-09-18T21:48:51.725Z,19.20
2018-09-18T21:51:20.328Z,19.00
2018-09-18T21:53:48.964Z,17.90
2018-09-18T21:56:17.530Z,18.50
2018-09-18T21:58:46.208Z,17.60
2018-09-18T22:01:15.000Z,16.67
2018-09-18T22:03:43.560Z,13.63
2018-09-18T22:06:12.159Z,12.70
2018-09-18T22:08:41.308Z,12.40
2018-09-18T22:11:10.000Z,13.40
2018-09-18T22:13:39.677Z,13.67
2018-09-18T22:16:09.226Z,13.00
2018-09-18T22:18:37.781Z,13.43
2018-09-18T22:21:07.129Z,14.70
2018-09-18T22:23:35.707Z,13.30
2018-09-18T22:26:04.328Z,12.20
2018-09-18T22:28:33.562Z,12.03
2018-09-18T22:31:02.175Z,11.03
2018-09-18T22:33:30.768Z,10.80
2018-09-18T22:35:59.379Z,11.20
2018-09-18T22:38:27.958Z,7.03
2018-09-18T22:40:56.565Z,7.03
2018-09-18T22:43:25.149Z,6.43
2018-09-18T22:45:53.753Z,5.83
2018-09-18T22:48:22.268Z,5.30
2018-09-18T22:50:50.845Z,5.63
2018-09-18T22:53:23.738Z,4.97
2018-09-18T22:55:52.677Z,4.97
2018-09-18T22:58:21.251Z,4.73
2018-09-18T23:00:49.869Z,7.07
2018-09-18T23:03:18.396Z,4.53
2018-09-18T23:05:47.008Z,4.17
2018-09-18T23:08:15.564Z,4.60
2018-09-18T23:10:44.224Z,3.97
2018-09-18T23:13:12.790Z,6.03
2018-09-18T23:15:41.381Z,4.57
2018-09-18T23:18:09.920Z,4.43
2018-09-18T23:20:38.505Z,3.13
2018-09-18T23:23:07.098Z,3.40
2018-09-18T23:25:35.697Z,3.20
2018-09-18T23:28:04.269Z,3.00
2018-09-18T23:30:32.852Z,2.93
2018-09-18T23:33:01.480Z,2.93
2018-09-18T23:35:30.092Z,2.67
2018-09-18T23:37:58.641Z,2.70
2018-09-18T23:40:27.224Z,2.70
2018-09-18T23:42:55.793Z,2.30
2018-09-18T23:45:24.366Z,2.73
2018-09-18T23:47:53.092Z,2.60
2018-09-18T23:50:22.309Z,2.57
2018-09-18T23:52:53.703Z,3.07
2018-09-18T23:55:22.325Z,2.80
2018-09-18T23:57:50.964Z,2.70
